Romulus, Alabama
Current Conditions -  °F | °C
As of 3:53 AM on Sunday 26 Oct 2014 (Local Time) from KTCL Reporting Station
Few Clouds Few Clouds  
Wind Chill: 56°   Ceiling: Unl
Heat Index: 56°   Visibility: 10mi
Dew Point: 55°   Wind: 0mph
Humidity: 97%   Direction: NA
Pressure: 30.02"   Gusts: NA
Location:  33.2658°N, 87.7278°W
Report Text: KTCL 260853Z AUTO 00000KT 10SM FEW004 13/13 A3002 RMK AO2 SLP163 T01330128 58010
Loading
Personal Weather Stations






























Interactive Weather Map
Tropical Storm Tracking
New forecast layout! Learn more

10-Day Weather Forecast

Advertisements
Track Severe Weather on mobile